sensor_id;sensor_type;location;lat;lon;timestamp;P1;durP1;ratioP1;P2;durP2;ratioP2
41297;SDS011;27381;46.032;13.650;2022-09-01T00:01:28;1.52;;;0.93;;
41297;SDS011;27381;46.032;13.650;2022-09-01T00:03:55;0.95;;;0.90;;
41297;SDS011;27381;46.032;13.650;2022-09-01T00:06:24;1.52;;;0.73;;
41297;SDS011;27381;46.032;13.650;2022-09-01T00:08:53;2.10;;;1.10;;
41297;SDS011;27381;46.032;13.650;2022-09-01T00:11:19;0.60;;;0.57;;
41297;SDS011;27381;46.032;13.650;2022-09-01T00:13:45;1.00;;;0.50;;
41297;SDS011;27381;46.032;13.650;2022-09-01T00:16:10;1.00;;;0.60;;
41297;SDS011;27381;46.032;13.650;2022-09-01T00:18:41;1.23;;;0.70;;
41297;SDS011;27381;46.032;13.650;2022-09-01T00:21:09;2.75;;;0.80;;
41297;SDS011;27381;46.032;13.650;2022-09-01T00:23:34;1.85;;;0.38;;
41297;SDS011;27381;46.032;13.650;2022-09-01T00:26:00;0.68;;;0.60;;
41297;SDS011;27381;46.032;13.650;2022-09-01T00:28:25;0.32;;;0.32;;
41297;SDS011;27381;46.032;13.650;2022-09-01T00:30:51;0.55;;;0.50;;
41297;SDS011;27381;46.032;13.650;2022-09-01T00:33:17;1.15;;;0.60;;
41297;SDS011;27381;46.032;13.650;2022-09-01T00:35:43;0.90;;;0.47;;
41297;SDS011;27381;46.032;13.650;2022-09-01T00:38:08;1.33;;;0.70;;
41297;SDS011;27381;46.032;13.650;2022-09-01T00:40:34;1.75;;;1.45;;
41297;SDS011;27381;46.032;13.650;2022-09-01T00:42:59;0.30;;;0.30;;
41297;SDS011;27381;46.032;13.650;2022-09-01T00:45:25;0.40;;;0.40;;
41297;SDS011;27381;46.032;13.650;2022-09-01T00:47:50;5.60;;;0.95;;
41297;SDS011;27381;46.032;13.650;2022-09-01T00:50:16;0.30;;;0.30;;
41297;SDS011;27381;46.032;13.650;2022-09-01T00:52:47;0.63;;;0.52;;
41297;SDS011;27381;46.032;13.650;2022-09-01T00:55:17;0.40;;;0.30;;
41297;SDS011;27381;46.032;13.650;2022-09-01T00:57:45;0.35;;;0.20;;
41297;SDS011;27381;46.032;13.650;2022-09-01T01:00:30;0.30;;;0.30;;
41297;SDS011;27381;46.032;13.650;2022-09-01T01:02:56;0.38;;;0.38;;
41297;SDS011;27381;46.032;13.650;2022-09-01T01:05:26;0.28;;;0.20;;
41297;SDS011;27381;46.032;13.650;2022-09-01T01:07:55;0.40;;;0.40;;
41297;SDS011;27381;46.032;13.650;2022-09-01T01:10:20;0.57;;;0.40;;
41297;SDS011;27381;46.032;13.650;2022-09-01T01:12:47;0.57;;;0.30;;
41297;SDS011;27381;46.032;13.650;2022-09-01T01:15:16;0.20;;;0.20;;
41297;SDS011;27381;46.032;13.650;2022-09-01T01:17:42;0.40;;;0.40;;
41297;SDS011;27381;46.032;13.650;2022-09-01T01:20:07;0.73;;;0.38;;
41297;SDS011;27381;46.032;13.650;2022-09-01T01:25:49;0.40;;;0.28;;
41297;SDS011;27381;46.032;13.650;2022-09-01T01:28:17;0.30;;;0.30;;
41297;SDS011;27381;46.032;13.650;2022-09-01T01:30:48;0.63;;;0.30;;
41297;SDS011;27381;46.032;13.650;2022-09-01T01:33:21;0.20;;;0.20;;
41297;SDS011;27381;46.032;13.650;2022-09-01T01:35:51;0.10;;;0.10;;
41297;SDS011;27381;46.032;13.650;2022-09-01T01:38:17;0.38;;;0.22;;
41297;SDS011;27381;46.032;13.650;2022-09-01T01:40:47;0.20;;;0.20;;
41297;SDS011;27381;46.032;13.650;2022-09-01T01:43:12;0.38;;;0.30;;
41297;SDS011;27381;46.032;13.650;2022-09-01T01:48:13;0.30;;;0.30;;
41297;SDS011;27381;46.032;13.650;2022-09-01T01:50:40;1.50;;;0.40;;
41297;SDS011;27381;46.032;13.650;2022-09-01T01:53:06;0.30;;;0.30;;
41297;SDS011;27381;46.032;13.650;2022-09-01T01:55:33;0.17;;;0.10;;
41297;SDS011;27381;46.032;13.650;2022-09-01T01:57:59;0.22;;;0.20;;
41297;SDS011;27381;46.032;13.650;2022-09-01T02:00:26;0.10;;;0.10;;
41297;SDS011;27381;46.032;13.650;2022-09-01T02:02:52;0.30;;;0.30;;
41297;SDS011;27381;46.032;13.650;2022-09-01T02:05:19;0.25;;;0.25;;
41297;SDS011;27381;46.032;13.650;2022-09-01T02:07:47;0.60;;;0.30;;
41297;SDS011;27381;46.032;13.650;2022-09-01T02:10:13;0.52;;;0.30;;
41297;SDS011;27381;46.032;13.650;2022-09-01T02:12:39;0.30;;;0.22;;
41297;SDS011;27381;46.032;13.650;2022-09-01T02:15:06;0.40;;;0.20;;
41297;SDS011;27381;46.032;13.650;2022-09-01T02:17:32;0.40;;;0.30;;
41297;SDS011;27381;46.032;13.650;2022-09-01T02:19:57;0.28;;;0.25;;
41297;SDS011;27381;46.032;13.650;2022-09-01T02:22:23;0.95;;;0.20;;
41297;SDS011;27381;46.032;13.650;2022-09-01T02:24:49;0.20;;;0.20;;
41297;SDS011;27381;46.032;13.650;2022-09-01T02:27:16;0.20;;;0.20;;
41297;SDS011;27381;46.032;13.650;2022-09-01T02:29:46;0.30;;;0.22;;
41297;SDS011;27381;46.032;13.650;2022-09-01T02:32:12;0.30;;;0.20;;
41297;SDS011;27381;46.032;13.650;2022-09-01T02:34:39;0.17;;;0.17;;
41297;SDS011;27381;46.032;13.650;2022-09-01T02:37:04;0.30;;;0.30;;
41297;SDS011;27381;46.032;13.650;2022-09-01T02:39:30;0.20;;;0.20;;
41297;SDS011;27381;46.032;13.650;2022-09-01T02:41:59;0.20;;;0.20;;
41297;SDS011;27381;46.032;13.650;2022-09-01T02:44:27;0.80;;;0.40;;
41297;SDS011;27381;46.032;13.650;2022-09-01T02:46:53;0.47;;;0.47;;
41297;SDS011;27381;46.032;13.650;2022-09-01T02:49:22;0.50;;;0.45;;
41297;SDS011;27381;46.032;13.650;2022-09-01T02:51:53;0.38;;;0.20;;
41297;SDS011;27381;46.032;13.650;2022-09-01T02:54:22;0.20;;;0.20;;
41297;SDS011;27381;46.032;13.650;2022-09-01T02:56:50;0.40;;;0.10;;
41297;SDS011;27381;46.032;13.650;2022-09-01T02:59:19;0.28;;;0.28;;
41297;SDS011;27381;46.032;13.650;2022-09-01T03:01:47;0.17;;;0.10;;
41297;SDS011;27381;46.032;13.650;2022-09-01T03:04:13;0.15;;;0.10;;
41297;SDS011;27381;46.032;13.650;2022-09-01T03:06:38;2.20;;;0.13;;
41297;SDS011;27381;46.032;13.650;2022-09-01T03:09:06;0.20;;;0.20;;
41297;SDS011;27381;46.032;13.650;2022-09-01T03:11:34;0.15;;;0.10;;
41297;SDS011;27381;46.032;13.650;2022-09-01T03:14:00;0.10;;;0.10;;
41297;SDS011;27381;46.032;13.650;2022-09-01T03:16:27;0.20;;;0.20;;
41297;SDS011;27381;46.032;13.650;2022-09-01T03:18:54;0.47;;;0.20;;
41297;SDS011;27381;46.032;13.650;2022-09-01T03:21:21;0.20;;;0.20;;
41297;SDS011;27381;46.032;13.650;2022-09-01T03:23:48;0.17;;;0.17;;
41297;SDS011;27381;46.032;13.650;2022-09-01T03:26:13;0.00;;;0.00;;
41297;SDS011;27381;46.032;13.650;2022-09-01T03:28:41;0.43;;;0.10;;
41297;SDS011;27381;46.032;13.650;2022-09-01T03:31:07;0.00;;;0.00;;
41297;SDS011;27381;46.032;13.650;2022-09-01T03:33:33;0.45;;;0.10;;
41297;SDS011;27381;46.032;13.650;2022-09-01T03:36:00;0.00;;;0.00;;
41297;SDS011;27381;46.032;13.650;2022-09-01T03:38:26;0.88;;;0.25;;
41297;SDS011;27381;46.032;13.650;2022-09-01T03:40:54;0.08;;;0.08;;
41297;SDS011;27381;46.032;13.650;2022-09-01T03:43:24;0.10;;;0.10;;
41297;SDS011;27381;46.032;13.650;2022-09-01T03:45:52;0.30;;;0.30;;
41297;SDS011;27381;46.032;13.650;2022-09-01T03:48:20;0.00;;;0.00;;
41297;SDS011;27381;46.032;13.650;2022-09-01T03:50:46;0.75;;;0.10;;
41297;SDS011;27381;46.032;13.650;2022-09-01T03:53:13;0.10;;;0.10;;
41297;SDS011;27381;46.032;13.650;2022-09-01T03:55:39;2.35;;;0.17;;
41297;SDS011;27381;46.032;13.650;2022-09-01T03:58:06;0.10;;;0.10;;
41297;SDS011;27381;46.032;13.650;2022-09-01T04:00:34;0.10;;;0.10;;
41297;SDS011;27381;46.032;13.650;2022-09-01T04:03:01;0.20;;;0.10;;
41297;SDS011;27381;46.032;13.650;2022-09-01T04:05:28;0.20;;;0.10;;
41297;SDS011;27381;46.032;13.650;2022-09-01T04:07:56;0.10;;;0.10;;
41297;SDS011;27381;46.032;13.650;2022-09-01T04:10:22;0.13;;;0.10;;
41297;SDS011;27381;46.032;13.650;2022-09-01T04:12:48;0.38;;;0.20;;
41297;SDS011;27381;46.032;13.650;2022-09-01T04:15:15;0.00;;;0.00;;
41297;SDS011;27381;46.032;13.650;2022-09-01T04:17:42;1.42;;;0.25;;
41297;SDS011;27381;46.032;13.650;2022-09-01T04:20:26;0.10;;;0.10;;
41297;SDS011;27381;46.032;13.650;2022-09-01T04:22:51;0.47;;;0.15;;
41297;SDS011;27381;46.032;13.650;2022-09-01T04:25:18;0.20;;;0.20;;
41297;SDS011;27381;46.032;13.650;2022-09-01T04:27:49;8.88;;;1.75;;
41297;SDS011;27381;46.032;13.650;2022-09-01T04:30:14;0.10;;;0.10;;
41297;SDS011;27381;46.032;13.650;2022-09-01T04:32:44;0.10;;;0.10;;
41297;SDS011;27381;46.032;13.650;2022-09-01T04:35:11;0.35;;;0.20;;
41297;SDS011;27381;46.032;13.650;2022-09-01T04:37:42;0.15;;;0.10;;
41297;SDS011;27381;46.032;13.650;2022-09-01T04:40:07;0.10;;;0.10;;
41297;SDS011;27381;46.032;13.650;2022-09-01T04:42:34;0.25;;;0.25;;
41297;SDS011;27381;46.032;13.650;2022-09-01T04:45:01;0.13;;;0.13;;
41297;SDS011;27381;46.032;13.650;2022-09-01T04:47:28;0.00;;;0.00;;
41297;SDS011;27381;46.032;13.650;2022-09-01T04:49:58;0.20;;;0.10;;
41297;SDS011;27381;46.032;13.650;2022-09-01T04:52:24;0.10;;;0.10;;
41297;SDS011;27381;46.032;13.650;2022-09-01T04:54:50;0.10;;;0.10;;
41297;SDS011;27381;46.032;13.650;2022-09-01T04:57:16;0.10;;;0.10;;
41297;SDS011;27381;46.032;13.650;2022-09-01T04:59:43;0.10;;;0.10;;
41297;SDS011;27381;46.032;13.650;2022-09-01T05:02:10;0.10;;;0.10;;
41297;SDS011;27381;46.032;13.650;2022-09-01T05:04:35;0.47;;;0.40;;
41297;SDS011;27381;46.032;13.650;2022-09-01T05:07:01;0.17;;;0.10;;
41297;SDS011;27381;46.032;13.650;2022-09-01T05:09:33;1.90;;;0.20;;
41297;SDS011;27381;46.032;13.650;2022-09-01T05:12:22;0.03;;;0.03;;
41297;SDS011;27381;46.032;13.650;2022-09-01T05:14:48;0.20;;;0.20;;
41297;SDS011;27381;46.032;13.650;2022-09-01T05:17:17;0.10;;;0.10;;
41297;SDS011;27381;46.032;13.650;2022-09-01T05:19:44;0.98;;;0.57;;
41297;SDS011;27381;46.032;13.650;2022-09-01T05:22:12;0.20;;;0.20;;
41297;SDS011;27381;46.032;13.650;2022-09-01T05:24:43;0.10;;;0.10;;
41297;SDS011;27381;46.032;13.650;2022-09-01T05:27:09;5.10;;;1.15;;
41297;SDS011;27381;46.032;13.650;2022-09-01T05:29:37;0.10;;;0.10;;
41297;SDS011;27381;46.032;13.650;2022-09-01T05:32:05;0.17;;;0.10;;
41297;SDS011;27381;46.032;13.650;2022-09-01T05:34:37;0.10;;;0.10;;
41297;SDS011;27381;46.032;13.650;2022-09-01T05:37:05;0.10;;;0.10;;
41297;SDS011;27381;46.032;13.650;2022-09-01T05:39:31;0.20;;;0.20;;
41297;SDS011;27381;46.032;13.650;2022-09-01T05:41:57;0.08;;;0.08;;
41297;SDS011;27381;46.032;13.650;2022-09-01T05:44:23;0.30;;;0.30;;
41297;SDS011;27381;46.032;13.650;2022-09-01T05:46:51;6.13;;;0.40;;
41297;SDS011;27381;46.032;13.650;2022-09-01T05:49:18;0.10;;;0.10;;
41297;SDS011;27381;46.032;13.650;2022-09-01T05:51:46;0.75;;;0.73;;
41297;SDS011;27381;46.032;13.650;2022-09-01T05:54:21;0.10;;;0.10;;
41297;SDS011;27381;46.032;13.650;2022-09-01T05:56:54;0.20;;;0.20;;
41297;SDS011;27381;46.032;13.650;2022-09-01T05:59:25;0.10;;;0.10;;
41297;SDS011;27381;46.032;13.650;2022-09-01T06:02:12;0.30;;;0.13;;
41297;SDS011;27381;46.032;13.650;2022-09-01T06:04:37;0.17;;;0.10;;
41297;SDS011;27381;46.032;13.650;2022-09-01T06:07:11;0.20;;;0.20;;
41297;SDS011;27381;46.032;13.650;2022-09-01T06:09:46;0.30;;;0.20;;
41297;SDS011;27381;46.032;13.650;2022-09-01T06:12:14;0.22;;;0.20;;
41297;SDS011;27381;46.032;13.650;2022-09-01T06:14:49;0.25;;;0.25;;
41297;SDS011;27381;46.032;13.650;2022-09-01T06:17:16;0.15;;;0.15;;
41297;SDS011;27381;46.032;13.650;2022-09-01T06:19:44;0.20;;;0.10;;
41297;SDS011;27381;46.032;13.650;2022-09-01T06:22:11;0.10;;;0.10;;
41297;SDS011;27381;46.032;13.650;2022-09-01T06:24:38;0.52;;;0.40;;
41297;SDS011;27381;46.032;13.650;2022-09-01T06:27:07;0.20;;;0.20;;
41297;SDS011;27381;46.032;13.650;2022-09-01T06:29:35;0.30;;;0.20;;
41297;SDS011;27381;46.032;13.650;2022-09-01T06:32:05;0.10;;;0.10;;
41297;SDS011;27381;46.032;13.650;2022-09-01T06:34:35;0.15;;;0.15;;
41297;SDS011;27381;46.032;13.650;2022-09-01T06:37:03;0.20;;;0.20;;
41297;SDS011;27381;46.032;13.650;2022-09-01T06:39:29;0.32;;;0.10;;
41297;SDS011;27381;46.032;13.650;2022-09-01T06:41:56;0.20;;;0.10;;
41297;SDS011;27381;46.032;13.650;2022-09-01T06:44:28;0.25;;;0.20;;
41297;SDS011;27381;46.032;13.650;2022-09-01T06:47:02;0.20;;;0.20;;
41297;SDS011;27381;46.032;13.650;2022-09-01T06:49:29;0.10;;;0.10;;
41297;SDS011;27381;46.032;13.650;2022-09-01T06:52:00;0.22;;;0.20;;
41297;SDS011;27381;46.032;13.650;2022-09-01T06:54:28;0.20;;;0.20;;
41297;SDS011;27381;46.032;13.650;2022-09-01T06:56:59;0.17;;;0.17;;
41297;SDS011;27381;46.032;13.650;2022-09-01T06:59:28;0.25;;;0.15;;
41297;SDS011;27381;46.032;13.650;2022-09-01T07:01:58;0.40;;;0.20;;
41297;SDS011;27381;46.032;13.650;2022-09-01T07:04:31;0.20;;;0.20;;
41297;SDS011;27381;46.032;13.650;2022-09-01T07:07:01;0.10;;;0.10;;
41297;SDS011;27381;46.032;13.650;2022-09-01T07:09:41;0.20;;;0.20;;
41297;SDS011;27381;46.032;13.650;2022-09-01T07:12:22;0.63;;;0.20;;
41297;SDS011;27381;46.032;13.650;2022-09-01T07:14:48;0.20;;;0.20;;
41297;SDS011;27381;46.032;13.650;2022-09-01T07:17:13;0.17;;;0.15;;
41297;SDS011;27381;46.032;13.650;2022-09-01T07:19:41;0.10;;;0.10;;
41297;SDS011;27381;46.032;13.650;2022-09-01T07:22:07;0.52;;;0.20;;
41297;SDS011;27381;46.032;13.650;2022-09-01T07:24:36;0.17;;;0.10;;
41297;SDS011;27381;46.032;13.650;2022-09-01T07:27:21;2.10;;;0.17;;
41297;SDS011;27381;46.032;13.650;2022-09-01T07:29:53;0.30;;;0.30;;
41297;SDS011;27381;46.032;13.650;2022-09-01T07:32:20;0.10;;;0.10;;
41297;SDS011;27381;46.032;13.650;2022-09-01T07:34:46;0.40;;;0.30;;
41297;SDS011;27381;46.032;13.650;2022-09-01T07:37:11;1.95;;;0.32;;
41297;SDS011;27381;46.032;13.650;2022-09-01T07:39:38;0.40;;;0.40;;
41297;SDS011;27381;46.032;13.650;2022-09-01T07:42:36;0.22;;;0.20;;
41297;SDS011;27381;46.032;13.650;2022-09-01T07:45:22;0.30;;;0.30;;
41297;SDS011;27381;46.032;13.650;2022-09-01T07:47:58;0.35;;;0.28;;
41297;SDS011;27381;46.032;13.650;2022-09-01T07:50:32;0.35;;;0.30;;
41297;SDS011;27381;46.032;13.650;2022-09-01T07:52:58;0.22;;;0.22;;
41297;SDS011;27381;46.032;13.650;2022-09-01T07:55:24;0.30;;;0.30;;
41297;SDS011;27381;46.032;13.650;2022-09-01T07:57:52;0.35;;;0.35;;
41297;SDS011;27381;46.032;13.650;2022-09-01T08:00:18;0.17;;;0.17;;
41297;SDS011;27381;46.032;13.650;2022-09-01T08:02:49;0.35;;;0.30;;
41297;SDS011;27381;46.032;13.650;2022-09-01T08:05:17;0.10;;;0.10;;
41297;SDS011;27381;46.032;13.650;2022-09-01T08:07:47;1.40;;;0.43;;
41297;SDS011;27381;46.032;13.650;2022-09-01T08:10:13;0.70;;;0.50;;
41297;SDS011;27381;46.032;13.650;2022-09-01T08:12:40;0.57;;;0.47;;
41297;SDS011;27381;46.032;13.650;2022-09-01T08:15:06;0.40;;;0.40;;
41297;SDS011;27381;46.032;13.650;2022-09-01T08:17:32;0.30;;;0.30;;
41297;SDS011;27381;46.032;13.650;2022-09-01T08:20:01;0.52;;;0.50;;
41297;SDS011;27381;46.032;13.650;2022-09-01T08:22:46;0.75;;;0.50;;
41297;SDS011;27381;46.032;13.650;2022-09-01T08:25:21;16.42;;;1.05;;
41297;SDS011;27381;46.032;13.650;2022-09-01T08:27:47;0.50;;;0.40;;
41297;SDS011;27381;46.032;13.650;2022-09-01T08:30:13;0.52;;;0.40;;
41297;SDS011;27381;46.032;13.650;2022-09-01T08:32:39;0.68;;;0.50;;
41297;SDS011;27381;46.032;13.650;2022-09-01T08:35:08;0.50;;;0.30;;
41297;SDS011;27381;46.032;13.650;2022-09-01T08:37:33;0.43;;;0.32;;
41297;SDS011;27381;46.032;13.650;2022-09-01T08:39:59;0.57;;;0.43;;
41297;SDS011;27381;46.032;13.650;2022-09-01T08:45:19;0.52;;;0.45;;
41297;SDS011;27381;46.032;13.650;2022-09-01T08:47:45;0.73;;;0.70;;
41297;SDS011;27381;46.032;13.650;2022-09-01T08:50:11;0.50;;;0.50;;
41297;SDS011;27381;46.032;13.650;2022-09-01T08:53:08;0.57;;;0.57;;
41297;SDS011;27381;46.032;13.650;2022-09-01T08:55:43;0.57;;;0.55;;
41297;SDS011;27381;46.032;13.650;2022-09-01T08:58:09;0.57;;;0.30;;
41297;SDS011;27381;46.032;13.650;2022-09-01T09:00:58;0.90;;;0.63;;
41297;SDS011;27381;46.032;13.650;2022-09-01T09:03:26;0.85;;;0.50;;
41297;SDS011;27381;46.032;13.650;2022-09-01T09:15:46;0.50;;;0.50;;
41297;SDS011;27381;46.032;13.650;2022-09-01T09:20:49;0.98;;;0.82;;
41297;SDS011;27381;46.032;13.650;2022-09-01T09:23:20;0.65;;;0.57;;
41297;SDS011;27381;46.032;13.650;2022-09-01T09:25:48;0.90;;;0.35;;
41297;SDS011;27381;46.032;13.650;2022-09-01T09:28:15;0.70;;;0.50;;
41297;SDS011;27381;46.032;13.650;2022-09-01T09:30:40;0.60;;;0.60;;
41297;SDS011;27381;46.032;13.650;2022-09-01T09:33:06;0.68;;;0.65;;
41297;SDS011;27381;46.032;13.650;2022-09-01T09:35:42;1.02;;;0.60;;
41297;SDS011;27381;46.032;13.650;2022-09-01T09:41:49;0.85;;;0.40;;
41297;SDS011;27381;46.032;13.650;2022-09-01T09:43:41;0.50;;;0.32;;
41297;SDS011;27381;46.032;13.650;2022-09-01T09:46:21;1.13;;;0.75;;
41297;SDS011;27381;46.032;13.650;2022-09-01T09:48:48;0.40;;;0.40;;
41297;SDS011;27381;46.032;13.650;2022-09-01T09:51:15;1.38;;;1.00;;
41297;SDS011;27381;46.032;13.650;2022-09-01T09:53:40;0.40;;;0.40;;
41297;SDS011;27381;46.032;13.650;2022-09-01T09:58:41;1.25;;;0.85;;
41297;SDS011;27381;46.032;13.650;2022-09-01T10:03:46;0.60;;;0.60;;
41297;SDS011;27381;46.032;13.650;2022-09-01T10:06:33;0.85;;;0.70;;
41297;SDS011;27381;46.032;13.650;2022-09-01T10:09:04;0.60;;;0.50;;
41297;SDS011;27381;46.032;13.650;2022-09-01T10:13:58;0.77;;;0.60;;
41297;SDS011;27381;46.032;13.650;2022-09-01T10:16:25;1.02;;;0.65;;
41297;SDS011;27381;46.032;13.650;2022-09-01T10:18:51;1.05;;;0.80;;
41297;SDS011;27381;46.032;13.650;2022-09-01T10:21:21;0.88;;;0.60;;
41297;SDS011;27381;46.032;13.650;2022-09-01T10:23:48;1.42;;;0.85;;
41297;SDS011;27381;46.032;13.650;2022-09-01T10:31:14;1.13;;;0.80;;
41297;SDS011;27381;46.032;13.650;2022-09-01T10:33:40;2.08;;;1.02;;
41297;SDS011;27381;46.032;13.650;2022-09-01T10:36:05;0.77;;;0.70;;
41297;SDS011;27381;46.032;13.650;2022-09-01T10:38:31;1.02;;;0.82;;
41297;SDS011;27381;46.032;13.650;2022-09-01T10:40:57;0.90;;;0.77;;
41297;SDS011;27381;46.032;13.650;2022-09-01T10:48:49;0.85;;;0.80;;
41297;SDS011;27381;46.032;13.650;2022-09-01T10:53:50;0.85;;;0.80;;
41297;SDS011;27381;46.032;13.650;2022-09-01T11:01:13;1.20;;;0.73;;
41297;SDS011;27381;46.032;13.650;2022-09-01T11:06:11;0.85;;;0.85;;
41297;SDS011;27381;46.032;13.650;2022-09-01T11:08:57;1.10;;;1.00;;
41297;SDS011;27381;46.032;13.650;2022-09-01T11:11:45;1.35;;;1.00;;
41297;SDS011;27381;46.032;13.650;2022-09-01T11:14:18;2.35;;;0.60;;
41297;SDS011;27381;46.032;13.650;2022-09-01T11:17:09;1.20;;;0.68;;
41297;SDS011;27381;46.032;13.650;2022-09-01T11:24:48;1.42;;;0.88;;
41297;SDS011;27381;46.032;13.650;2022-09-01T11:30:07;1.33;;;1.20;;
41297;SDS011;27381;46.032;13.650;2022-09-01T11:34:59;0.80;;;0.70;;
41297;SDS011;27381;46.032;13.650;2022-09-01T11:37:26;0.63;;;0.63;;
41297;SDS011;27381;46.032;13.650;2022-09-01T11:39:57;2.92;;;0.70;;
41297;SDS011;27381;46.032;13.650;2022-09-01T11:42:27;0.60;;;0.60;;
41297;SDS011;27381;46.032;13.650;2022-09-01T11:47:26;1.88;;;0.95;;
41297;SDS011;27381;46.032;13.650;2022-09-01T11:52:22;1.55;;;0.80;;
41297;SDS011;27381;46.032;13.650;2022-09-01T11:54:49;0.70;;;0.70;;
41297;SDS011;27381;46.032;13.650;2022-09-01T11:57:25;1.00;;;0.90;;
41297;SDS011;27381;46.032;13.650;2022-09-01T11:59:52;1.05;;;0.82;;
41297;SDS011;27381;46.032;13.650;2022-09-01T12:02:22;0.50;;;0.50;;
41297;SDS011;27381;46.032;13.650;2022-09-01T12:04:50;0.70;;;0.70;;
41297;SDS011;27381;46.032;13.650;2022-09-01T12:10:00;1.95;;;1.20;;
41297;SDS011;27381;46.032;13.650;2022-09-01T12:12:28;0.80;;;0.70;;
41297;SDS011;27381;46.032;13.650;2022-09-01T12:14:57;1.70;;;0.98;;
41297;SDS011;27381;46.032;13.650;2022-09-01T12:17:23;0.95;;;0.70;;
41297;SDS011;27381;46.032;13.650;2022-09-01T12:19:49;2.45;;;0.95;;
41297;SDS011;27381;46.032;13.650;2022-09-01T12:22:16;0.70;;;0.70;;
41297;SDS011;27381;46.032;13.650;2022-09-01T12:24:46;0.90;;;0.90;;
41297;SDS011;27381;46.032;13.650;2022-09-01T12:27:12;1.00;;;0.90;;
41297;SDS011;27381;46.032;13.650;2022-09-01T12:29:38;1.33;;;0.75;;
41297;SDS011;27381;46.032;13.650;2022-09-01T12:32:04;0.80;;;0.75;;
41297;SDS011;27381;46.032;13.650;2022-09-01T12:39:31;0.60;;;0.50;;
41297;SDS011;27381;46.032;13.650;2022-09-01T12:42:39;0.82;;;0.82;;
41297;SDS011;27381;46.032;13.650;2022-09-01T12:44:53;1.23;;;0.63;;
41297;SDS011;27381;46.032;13.650;2022-09-01T12:52:50;2.40;;;1.98;;
41297;SDS011;27381;46.032;13.650;2022-09-01T12:55:18;1.40;;;0.85;;
41297;SDS011;27381;46.032;13.650;2022-09-01T12:57:45;1.77;;;0.90;;
41297;SDS011;27381;46.032;13.650;2022-09-01T13:00:15;0.80;;;0.68;;
41297;SDS011;27381;46.032;13.650;2022-09-01T13:02:49;1.00;;;0.63;;
41297;SDS011;27381;46.032;13.650;2022-09-01T13:05:32;2.28;;;0.95;;
41297;SDS011;27381;46.032;13.650;2022-09-01T13:08:20;0.73;;;0.50;;
41297;SDS011;27381;46.032;13.650;2022-09-01T13:10:49;1.17;;;0.70;;
41297;SDS011;27381;46.032;13.650;2022-09-01T13:13:15;0.70;;;0.70;;
41297;SDS011;27381;46.032;13.650;2022-09-01T13:15:42;2.10;;;1.45;;
41297;SDS011;27381;46.032;13.650;2022-09-01T13:18:08;0.68;;;0.68;;
41297;SDS011;27381;46.032;13.650;2022-09-01T13:20:34;1.08;;;0.85;;
41297;SDS011;27381;46.032;13.650;2022-09-01T13:23:00;1.23;;;0.80;;
41297;SDS011;27381;46.032;13.650;2022-09-01T13:25:26;0.52;;;0.52;;
41297;SDS011;27381;46.032;13.650;2022-09-01T13:27:52;0.80;;;0.60;;
41297;SDS011;27381;46.032;13.650;2022-09-01T13:30:20;1.02;;;0.93;;
41297;SDS011;27381;46.032;13.650;2022-09-01T13:32:46;2.85;;;0.68;;
41297;SDS011;27381;46.032;13.650;2022-09-01T13:35:13;0.95;;;0.90;;
41297;SDS011;27381;46.032;13.650;2022-09-01T13:37:39;0.80;;;0.80;;
41297;SDS011;27381;46.032;13.650;2022-09-01T13:40:05;0.75;;;0.60;;
41297;SDS011;27381;46.032;13.650;2022-09-01T13:42:32;1.08;;;0.80;;
41297;SDS011;27381;46.032;13.650;2022-09-01T13:44:58;1.23;;;0.90;;
41297;SDS011;27381;46.032;13.650;2022-09-01T13:47:23;0.80;;;0.80;;
41297;SDS011;27381;46.032;13.650;2022-09-01T13:49:49;3.63;;;0.80;;
41297;SDS011;27381;46.032;13.650;2022-09-01T13:52:15;1.08;;;0.80;;
41297;SDS011;27381;46.032;13.650;2022-09-01T13:54:40;1.58;;;0.60;;
41297;SDS011;27381;46.032;13.650;2022-09-01T13:57:08;1.40;;;0.90;;
41297;SDS011;27381;46.032;13.650;2022-09-01T13:59:33;0.98;;;0.80;;
41297;SDS011;27381;46.032;13.650;2022-09-01T14:01:59;1.10;;;0.90;;
41297;SDS011;27381;46.032;13.650;2022-09-01T14:04:25;0.98;;;0.88;;
41297;SDS011;27381;46.032;13.650;2022-09-01T14:06:51;0.60;;;0.60;;
41297;SDS011;27381;46.032;13.650;2022-09-01T14:09:18;0.60;;;0.60;;
41297;SDS011;27381;46.032;13.650;2022-09-01T14:11:43;1.38;;;0.90;;
41297;SDS011;27381;46.032;13.650;2022-09-01T14:14:09;0.77;;;0.77;;
41297;SDS011;27381;46.032;13.650;2022-09-01T14:16:35;1.20;;;0.95;;
41297;SDS011;27381;46.032;13.650;2022-09-01T14:19:01;1.00;;;1.00;;
41297;SDS011;27381;46.032;13.650;2022-09-01T14:21:27;1.15;;;0.90;;
41297;SDS011;27381;46.032;13.650;2022-09-01T14:23:52;0.65;;;0.65;;
41297;SDS011;27381;46.032;13.650;2022-09-01T14:26:18;0.60;;;0.50;;
41297;SDS011;27381;46.032;13.650;2022-09-01T14:28:43;1.17;;;1.08;;
41297;SDS011;27381;46.032;13.650;2022-09-01T14:31:10;1.00;;;0.63;;
41297;SDS011;27381;46.032;13.650;2022-09-01T14:33:36;0.95;;;0.63;;
41297;SDS011;27381;46.032;13.650;2022-09-01T14:36:02;0.52;;;0.50;;
41297;SDS011;27381;46.032;13.650;2022-09-01T14:38:28;0.52;;;0.50;;
41297;SDS011;27381;46.032;13.650;2022-09-01T14:40:54;0.98;;;0.82;;
41297;SDS011;27381;46.032;13.650;2022-09-01T14:43:19;1.38;;;0.60;;
41297;SDS011;27381;46.032;13.650;2022-09-01T14:45:45;5.10;;;1.20;;
41297;SDS011;27381;46.032;13.650;2022-09-01T14:48:12;0.70;;;0.70;;
41297;SDS011;27381;46.032;13.650;2022-09-01T14:50:43;0.95;;;0.85;;
41297;SDS011;27381;46.032;13.650;2022-09-01T14:53:09;1.23;;;0.82;;
41297;SDS011;27381;46.032;13.650;2022-09-01T14:55:34;3.03;;;0.93;;
41297;SDS011;27381;46.032;13.650;2022-09-01T14:58:00;2.33;;;0.65;;
41297;SDS011;27381;46.032;13.650;2022-09-01T15:00:26;0.75;;;0.60;;
41297;SDS011;27381;46.032;13.650;2022-09-01T15:02:52;1.15;;;1.00;;
41297;SDS011;27381;46.032;13.650;2022-09-01T15:05:18;0.85;;;0.80;;
41297;SDS011;27381;46.032;13.650;2022-09-01T15:07:44;0.65;;;0.65;;
41297;SDS011;27381;46.032;13.650;2022-09-01T15:10:10;2.08;;;0.80;;
41297;SDS011;27381;46.032;13.650;2022-09-01T15:12:37;0.88;;;0.82;;
41297;SDS011;27381;46.032;13.650;2022-09-01T15:15:04;0.93;;;0.90;;
41297;SDS011;27381;46.032;13.650;2022-09-01T15:17:30;1.10;;;0.55;;
41297;SDS011;27381;46.032;13.650;2022-09-01T15:19:56;0.70;;;0.70;;
41297;SDS011;27381;46.032;13.650;2022-09-01T15:22:41;0.73;;;0.73;;
41297;SDS011;27381;46.032;13.650;2022-09-01T15:25:07;1.23;;;0.70;;
41297;SDS011;27381;46.032;13.650;2022-09-01T15:27:32;0.50;;;0.50;;
41297;SDS011;27381;46.032;13.650;2022-09-01T15:29:58;0.68;;;0.60;;
41297;SDS011;27381;46.032;13.650;2022-09-01T15:32:24;1.50;;;0.82;;
41297;SDS011;27381;46.032;13.650;2022-09-01T15:34:49;0.88;;;0.80;;
41297;SDS011;27381;46.032;13.650;2022-09-01T15:37:15;1.25;;;1.05;;
41297;SDS011;27381;46.032;13.650;2022-09-01T15:39:40;0.88;;;0.88;;
41297;SDS011;27381;46.032;13.650;2022-09-01T15:42:06;0.80;;;0.70;;
41297;SDS011;27381;46.032;13.650;2022-09-01T15:44:34;0.90;;;0.82;;
41297;SDS011;27381;46.032;13.650;2022-09-01T15:46:59;0.93;;;0.82;;
41297;SDS011;27381;46.032;13.650;2022-09-01T15:49:25;2.08;;;0.90;;
41297;SDS011;27381;46.032;13.650;2022-09-01T15:51:50;1.45;;;0.60;;
41297;SDS011;27381;46.032;13.650;2022-09-01T15:54:19;1.85;;;0.80;;
41297;SDS011;27381;46.032;13.650;2022-09-01T15:56:44;1.73;;;1.02;;
41297;SDS011;27381;46.032;13.650;2022-09-01T15:59:11;1.10;;;1.00;;
41297;SDS011;27381;46.032;13.650;2022-09-01T16:01:38;0.77;;;0.70;;